Latest Weather Observations for Noonamah

IDD60801

Issued at 9:51 am CST Monday 16 September 2019 (issued every 10 minutes, with the page automatically refreshed every 10 minutes)

About weather observations | Map of weather stations | Latest weather observations for NT | Other Formats
Station Details ID: 014314 Name: NOONAMAH AIRSTRIP Lat: -12.61 Lon: 131.05 Height: 17.5 m
Data from the previous 72 hours. | See also: Recent months at Noonamah
Date/Time
CST
Temp
°C
App
Temp
°C
Dew
Point
°C
Rel
Hum
%
Delta-T
°C
Wind Press
QNH
hPa
Press
MSL
hPa
Rain since
9am
mm
Dir  Spd
km/h
Gust
km/h
Spd
kts
Gust
kts
16/09:30am 26.5 28.2 18.1 60 5.3 ENE 6 9 3 5 1016.1 1016.0 0.0
16/09:00am 25.6 27.6 18.8 66 4.3 E 6 9 3 5 1016.2 1016.1 0.0
16/08:30am 24.1 26.3 18.3 70 3.7 E 4 6 2 3 1016.2 1016.1 0.0
16/08:00am 22.0 24.8 18.0 78 2.5 CALM 0 0 0 0 1016.3 1016.2 0.0
16/07:30am 20.2 22.7 17.2 83 1.8 CALM 0 0 0 0 1015.9 1015.8 0.0
16/07:00am 19.0 21.1 16.2 84 1.7 CALM 0 0 0 0 1015.8 1015.7 0.0
16/06:30am 18.9 20.8 15.8 82 1.8 CALM 0 0 0 0 1015.5 1015.4 0.0
16/06:00am 19.3 21.2 15.8 80 2.1 CALM 0 0 0 0 1015.4 1015.3 0.0
16/05:30am 19.8 22.0 16.4 81 2.0 CALM 0 0 0 0 1015.3 1015.2 0.0
16/05:00am 19.6 21.6 15.9 79 2.2 CALM 0 0 0 0 1015.2 1015.1 0.0
16/04:30am 19.6 21.6 16.1 80 2.1 CALM 0 0 0 0 1015.0 1014.9 0.0
16/04:00am 19.7 21.8 16.2 80 2.1 CALM 0 0 0 0 1014.8 1014.7 0.0
16/03:30am 20.3 22.3 16.1 77 2.5 CALM 0 0 0 0 1014.7 1014.6 0.0
16/03:00am 20.7 22.3 16.9 79 2.3 SSE 4 6 2 3 1014.8 1014.7 0.0
16/02:30am 20.5 21.7 16.9 80 2.2 SE 6 7 3 4 1015.2 1015.1 0.0
16/02:00am 20.8 23.0 16.6 77 2.5 CALM 0 0 0 0 1014.8 1014.7 0.0
16/01:30am 20.8 22.9 16.2 75 2.8 CALM 0 2 0 1 1014.7 1014.6 0.0
16/01:00am 21.4 22.9 16.6 74 2.9 S 4 7 2 4 1014.6 1014.5 0.0
16/12:30am 22.3 23.7 17.4 74 3.0 SSW 6 7 3 4 1014.5 1014.4 0.0
16/12:00am 22.4 24.0 16.9 71 3.4 SW 4 6 2 3 1014.6 1014.5 0.0
 
Date/Time
CST
Temp
°C
App
Temp
°C
Dew
Point
°C
Rel
Hum
%
Delta-T
°C
Wind Press
QNH
hPa
Press
MSL
hPa
Rain since
9am
mm
Dir  Spd
km/h
Gust
km/h
Spd
kts
Gust
kts
15/11:30pm 22.8 24.6 17.3 71 3.4 WSW 4 7 2 4 1014.7 1014.6 0.0
15/11:00pm 23.5 25.3 17.3 68 3.8 WNW 4 7 2 4 1014.6 1014.5 0.0
15/10:30pm 23.9 25.8 17.6 68 3.9 W 4 9 2 5 1014.5 1014.4 0.0
15/10:00pm 24.5 26.0 17.5 65 4.4 NNE 6 9 3 5 1014.3 1014.2 0.0
15/09:30pm 24.7 26.0 17.2 63 4.7 NNE 6 11 3 6 1014.2 1014.1 0.0
15/09:00pm 24.8 26.4 16.8 61 4.9 NE 4 7 2 4 1014.0 1013.9 0.0
15/08:30pm 25.2 26.2 16.4 58 5.4 NE 6 11 3 6 1014.0 1013.9 0.0
15/08:00pm 25.7 26.4 15.7 54 6.1 NE 6 11 3 6 1013.7 1013.6 0.0
15/07:30pm 26.1 26.9 14.9 50 6.7 NNE 4 7 2 4 1013.4 1013.3 0.0
15/07:00pm 26.8 26.9 14.5 46 7.4 NNE 7 19 4 10 1013.1 1013.0 0.0
15/06:30pm 27.8 26.6 14.1 43 8.2 NNE 13 20 7 11 1012.6 1012.5 0.0
15/06:00pm 29.0 27.7 13.6 38 9.2 NE 13 20 7 11 1012.3 1012.2 0.0
15/05:30pm 29.6 28.2 13.4 37 9.7 NE 13 22 7 12 1012.0 1011.8 0.0
15/05:00pm 30.4 28.4 12.8 34 10.4 NNE 15 24 8 13 1012.0 1011.8 0.0
15/04:30pm 31.5 29.5 12.8 32 11.1 NE 15 26 8 14 1011.9 1011.7 0.0
15/04:00pm 32.2 29.9 11.9 29 11.9 NNE 15 24 8 13 1011.7 1011.5 0.0
15/03:30pm 32.1 28.9 11.3 28 12.1 NNE 19 28 10 15 1011.5 1011.3 0.0
15/03:00pm 33.8 30.4 7.7 20 14.5 E 15 33 8 18 1011.6 1011.4 0.0
15/02:30pm 34.2 31.3 8.0 20 14.6 ESE 13 24 7 13 1012.1 1011.9 0.0
15/02:00pm 33.1 29.0 8.5 22 13.8 E 20 37 11 20 1012.5 1012.4 0.0
15/01:30pm 32.7 27.9 7.5 21 13.9 ESE 22 37 12 20 1012.9 1012.8 0.0
15/01:00pm 32.7 27.9 7.5 21 13.9 E 22 39 12 21 1013.3 1013.2 0.0
15/12:30pm 32.2 26.8 6.4 20 13.9 ESE 24 39 13 21 1013.8 1013.7 0.0
15/12:00pm 32.9 28.0 7.0 20 14.2 ESE 22 37 12 20 1014.2 1014.1 0.0
15/11:30am 31.7 25.2 4.5 18 14.2 ESE 28 41 15 22 1014.6 1014.5 0.0
15/11:00am 30.8 25.8 6.6 22 13.0 E 22 39 12 21 1015.2 1015.1 0.0
15/10:30am 30.2 24.9 8.6 26 11.9 ESE 26 39 14 21 1015.8 1015.7 0.0
15/10:00am 28.4 24.1 9.2 30 10.6 E 22 32 12 17 1016.2 1016.1 0.0
15/09:30am 27.9 23.7 11.0 35 9.6 ESE 24 37 13 20 1016.6 1016.5 0.0
15/09:00am 27.1 26.3 14.1 44 7.7 SE 11 17 6 9 1016.8 1016.7 0.0
15/08:30am 24.9 26.3 17.4 63 4.7 ESE 6 9 3 5 1016.7 1016.6 0.0
15/08:00am 22.0 24.3 17.6 76 2.7 SSE 2 4 1 2 1016.5 1016.4 0.0
15/07:30am 18.6 20.5 15.7 83 1.7 CALM 0 0 0 0 1016.3 1016.2 0.0
15/07:00am 15.7 16.6 12.8 83 1.6 CALM 0 0 0 0 1016.2 1016.1 0.0
15/06:30am 16.3 17.2 12.8 80 1.9 CALM 0 0 0 0 1016.0 1015.9 0.0
15/06:00am 17.1 18.1 13.2 78 2.2 CALM 0 0 0 0 1015.7 1015.6 0.0
15/05:30am 17.7 18.8 13.4 76 2.4 CALM 0 0 0 0 1015.4 1015.3 0.0
15/05:00am 18.4 19.5 13.5 73 2.8 CALM 0 0 0 0 1015.4 1015.3 0.0
15/04:30am 18.7 19.8 13.6 72 2.9 CALM 0 0 0 0 1015.4 1015.3 0.0
15/04:00am 19.1 20.3 13.7 71 3.1 CALM 0 0 0 0 1015.1 1015.0 0.0
15/03:30am 19.8 21.4 15.0 74 2.8 CALM 0 0 0 0 1015.1 1015.0 0.0
15/03:00am 19.2 20.5 14.2 73 2.9 CALM 0 0 0 0 1015.0 1014.9 0.0
15/02:30am 19.9 21.2 14.0 69 3.4 CALM 0 0 0 0 1015.1 1015.0 0.0
15/02:00am 20.3 21.5 13.7 66 3.8 CALM 0 0 0 0 1015.1 1015.0 0.0
15/01:30am 20.8 21.9 14.5 67 3.7 S 2 4 1 2 1015.5 1015.4 0.0
15/01:00am 21.5 21.8 15.1 67 3.8 ESE 7 9 4 5 1015.8 1015.7 0.0
15/12:30am 21.2 21.7 13.9 63 4.2 E 4 6 2 3 1015.6 1015.5 0.0
15/12:00am 21.8 22.4 14.2 62 4.4 SE 4 6 2 3 1015.6 1015.5 0.0
 
Date/Time
CST
Temp
°C
App
Temp
°C
Dew
Point
°C
Rel
Hum
%
Delta-T
°C
Wind Press
QNH
hPa
Press
MSL
hPa
Rain since
9am
mm
Dir  Spd
km/h
Gust
km/h
Spd
kts
Gust
kts
14/11:30pm 22.4 23.8 14.3 60 4.7 CALM 0 0 0 0 1015.4 1015.3 0.0
14/11:00pm 23.9 24.8 16.7 64 4.4 W 7 13 4 7 1014.9 1014.8 0.0
14/10:30pm 21.6 22.3 12.2 55 5.3 CALM 0 0 0 0 1014.6 1014.5 0.0
14/10:00pm 22.5 23.3 12.4 52 5.7 CALM 0 0 0 0 1014.7 1014.6 0.0
14/09:30pm 22.8 23.4 11.8 50 6.2 CALM 0 0 0 0 1014.7 1014.6 0.0
14/09:00pm 23.8 24.3 11.5 46 6.9 CALM 0 2 0 1 1014.4 1014.3 0.0
14/08:30pm 25.4 25.5 11.6 42 7.8 ENE 2 6 1 3 1014.2 1014.1 0.0
14/08:00pm 26.4 25.8 11.7 40 8.4 ENE 6 9 3 5 1014.0 1013.9 0.0
14/07:30pm 27.1 26.1 10.3 35 9.4 NE 6 9 3 5 1013.5 1013.4 0.0
14/07:00pm 28.4 27.0 9.6 31 10.5 NE 7 13 4 7 1013.1 1013.0 0.0
14/06:30pm 29.8 27.8 8.8 27 11.6 NNE 9 15 5 8 1012.8 1012.7 0.0
14/06:00pm 30.9 28.3 9.2 26 12.2 NNE 13 22 7 12 1012.5 1012.4 0.0
14/05:30pm 31.7 28.7 9.3 25 12.6 NE 15 24 8 13 1012.3 1012.2 0.0
14/05:00pm 32.5 29.9 9.3 24 13.1 NNE 13 22 7 12 1012.1 1011.9 0.0
14/04:30pm 33.0 30.0 9.1 23 13.5 NNE 15 24 8 13 1011.9 1011.7 0.0
14/04:00pm 34.1 30.6 5.6 17 15.3 ENE 13 24 7 13 1011.8 1011.6 0.0
14/03:30pm 34.5 30.0 5.9 17 15.5 ESE 19 28 10 15 1012.0 1011.8 0.0
14/03:00pm 34.2 29.6 6.5 18 15.1 E 20 32 11 17 1012.3 1012.2 0.0
14/02:30pm 34.1 29.8 7.2 19 14.8 ENE 19 33 10 18 1012.8 1012.7 0.0
14/02:00pm 33.1 29.0 6.4 19 14.5 ENE 17 32 9 17 1013.4 1013.3 0.0
14/01:30pm 32.7 27.4 6.8 20 14.1 E 24 37 13 20 1014.0 1013.9 0.0
14/01:00pm 32.9 28.0 7.0 20 14.2 E 22 35 12 19 1014.6 1014.5 0.0
14/12:30pm 32.1 27.2 7.0 21 13.7 E 22 41 12 22 1015.3 1015.2 0.0
14/12:00pm 31.6 26.6 6.6 21 13.5 E 22 37 12 20 1015.8 1015.7 0.0
14/11:30am 30.8 25.2 7.3 23 12.8 ENE 26 41 14 22 1016.3 1016.2 0.0
14/11:00am 31.1 26.3 7.5 23 12.9 E 22 37 12 20 1016.8 1016.7 0.0
14/10:33am 30.2 24.0 8.0 25 12.2 E 30 50 16 27 1017.2 1017.1 0.0
14/10:30am 30.1 23.5 7.9 25 12.1 E 32 50 17 27 1017.2 1017.1 0.0
14/10:00am 29.3 23.3 7.2 25 11.9 E 28 48 15 26 1017.7 1017.6 0.0
14/09:43am 28.4 22.3 8.1 28 11.0 E 30 50 16 27 1017.9 1017.8 0.0
14/09:30am 27.8 23.7 10.1 33 9.9 ESE 22 33 12 18 1017.9 1017.8 0.0
14/09:00am 26.7 23.4 10.8 37 9.0 ESE 19 24 10 13 1018.0 1017.9 0.0
14/08:30am 24.5 26.0 17.5 65 4.4 ESE 6 11 3 6 1018.1 1018.0 0.0
14/08:00am 21.7 24.4 17.7 78 2.5 CALM 0 0 0 0 1018.0 1017.9 0.0
14/07:30am 17.3 18.1 12.6 74 2.6 CALM 0 0 0 0 1017.7 1017.6 0.0
14/07:00am 15.7 16.2 11.7 77 2.2 CALM 0 0 0 0 1017.4 1017.3 0.0
14/06:30am 15.5 15.9 11.3 76 2.2 CALM 0 0 0 0 1017.0 1016.9 0.0
14/06:00am 16.4 16.9 11.6 73 2.6 CALM 0 0 0 0 1016.9 1016.8 0.0
14/05:30am 16.6 17.1 11.5 72 2.8 CALM 0 0 0 0 1016.5 1016.4 0.0
14/05:00am 17.3 17.8 11.6 69 3.1 CALM 0 0 0 0 1016.2 1016.1 0.0
14/04:30am 17.9 18.6 12.1 69 3.2 CALM 0 0 0 0 1016.0 1015.9 0.0
14/04:00am 17.8 18.3 11.6 67 3.4 CALM 0 0 0 0 1015.8 1015.7 0.0
14/03:30am 18.0 18.7 12.2 69 3.2 CALM 0 4 0 2 1015.7 1015.6 0.0
14/03:00am 17.9 18.4 11.5 66 3.5 CALM 0 0 0 0 1015.6 1015.5 0.0
14/02:30am 18.5 19.4 12.9 70 3.1 CALM 0 0 0 0 1015.7 1015.6 0.0
14/02:00am 18.6 19.3 12.1 66 3.6 CALM 0 0 0 0 1015.8 1015.7 0.0
14/01:30am 18.9 19.5 11.9 64 3.9 CALM 0 0 0 0 1016.0 1015.9 0.0
14/01:00am 18.7 19.3 12.0 65 3.7 CALM 0 0 0 0 1016.1 1016.0 0.0
14/12:30am 19.1 19.7 11.9 63 4.0 CALM 0 4 0 2 1016.4 1016.3 0.0
14/12:00am 19.1 18.5 11.7 62 4.1 ENE 6 9 3 5 1016.5 1016.4 0.0
 
Date/Time
CST
Temp
°C
App
Temp
°C
Dew
Point
°C
Rel
Hum
%
Delta-T
°C
Wind Press
QNH
hPa
Press
MSL
hPa
Rain since
9am
mm
Dir  Spd
km/h
Gust
km/h
Spd
kts
Gust
kts
13/11:30pm 19.7 20.1 11.2 58 4.7 CALM 0 0 0 0 1016.1 1016.0 0.0
13/11:00pm 22.4 23.3 12.9 55 5.4 CALM 0 4 0 2 1016.0 1015.9 0.0
13/10:30pm 23.0 23.2 12.9 53 5.8 SSW 4 6 2 3 1015.9 1015.8 0.0
13/10:00pm 22.5 22.6 11.6 50 6.1 SW 2 6 1 3 1015.7 1015.6 0.0
13/09:30pm 23.4 23.5 12.7 51 6.1 SW 4 7 2 4 1015.5 1015.4 0.0
13/09:00pm 21.8 21.1 8.7 43 6.9 SSE 2 13 1 7 1015.0 1014.9 0.0
13/08:30pm 22.7 22.3 8.4 40 7.6 CALM 0 0 0 0 1014.5 1014.4 0.0
13/08:00pm 24.1 23.6 7.7 35 8.6 CALM 0 0 0 0 1014.3 1014.2 0.0
13/07:30pm 26.2 25.0 8.2 32 9.7 NNE 4 7 2 4 1013.8 1013.7 0.0
13/07:00pm 27.4 26.0 7.3 28 10.7 WNW 4 4 2 2 1013.5 1013.4 0.0
13/06:30pm 29.9 28.6 7.8 25 12.0 NNE 4 7 2 4 1013.1 1013.0 0.0
13/06:00pm 31.6 29.8 7.3 22 13.3 N 6 9 3 5 1012.9 1012.8 0.0
13/05:30pm 32.3 30.4 6.5 20 13.9 NE 6 9 3 5 1012.8 1012.7 0.0
13/05:00pm 33.7 29.3 -2.1 10 16.9 E 11 24 6 13 1012.8 1012.7 0.0
13/04:30pm 33.4 30.0 4.2 16 15.3 E 11 20 6 11 1012.7 1012.6 0.0
13/04:00pm 33.5 29.7 -1.0 11 16.6 SSE 9 17 5 9 1012.8 1012.7 0.0
13/03:30pm 33.6 29.2 -2.2 10 16.9 ESE 11 24 6 13 1013.1 1013.0 0.0
13/03:00pm 33.8 29.8 -2.0 10 17.0 E 9 30 5 16 1013.4 1013.3 0.0
13/02:30pm 32.8 27.2 -2.8 10 16.5 E 17 24 9 13 1013.9 1013.8 0.0
13/02:00pm 33.4 27.7 -3.7 9 17.1 ESE 17 33 9 18 1014.4 1014.3 0.0
13/01:30pm 33.3 28.0 -3.8 9 17.0 E 15 28 8 15 1015.1 1015.0 0.0
13/01:00pm 32.1 25.9 -4.7 9 16.5 ENE 19 32 10 17 1015.7 1015.6 0.0
13/12:30pm 32.6 25.3 -2.9 10 16.4 ESE 26 43 14 23 1016.1 1016.0 0.0
13/12:00pm 32.3 26.3 3.3 16 14.9 ESE 24 39 13 21 1016.6 1016.5 0.0
13/11:30am 31.4 25.2 4.2 18 14.1 ESE 26 43 14 23 1017.0 1016.9 0.0
13/11:00am 30.5 24.4 5.0 20 13.3 ESE 26 37 14 20 1017.5 1017.4 0.0
13/10:30am 29.7 24.7 6.4 23 12.4 ESE 22 37 12 20 1017.9 1017.8 0.0
13/10:00am 28.0 22.6 7.8 28 10.9 ESE 26 37 14 20 1018.2 1018.1 0.0

Other formats

Comma delimited format used in spreadsheet applications
http://www.bom.gov.au/fwo/IDD60801/IDD60801.94105.axf

JavaScript Object Notation format (JSON) in row-major order
http://www.bom.gov.au/fwo/IDD60801/IDD60801.94105.json

Data quality

Most of these data are generated automatically and are frequently updated. Quality checks on data are not normally performed. It is possible for incorrect values to appear. Refer to information at About Latest Weather Observations and please check the disclaimer before using these data.